BBC Congo — V2EL3 — position and weather

sailwx.info

Track history (hours):
 
Tides and Currents Weather Stations Pressure Air Temp Water Temp Dewpoint Dewpoint Depression Visibility Wind Speed Wind Dir Waves Ship Positions

BBC Congo

Last reported at 2014-Nov-21 06:24 UTC. Time now 2014-Nov-24 12:32 UTC.
Position N 39°28' W 073°57'.

Length 144 m; draft 6.6 m.

Type: Ship. MMSI: 305466000.

Date/timePositionNaut miles runAvg speedWind from/ knotsBaromVisibWave heightAir tempDewpointWater temp
2014-Nov-21 06:24N 39°28' W 073°57'1214.1
2014-Nov-21 05:34N 39°40' W 073°54'4112.5
2014-Nov-21 02:15N 40°21' W 073°49'6 9.0
2014-Nov-21 01:34N 40°27' W 073°50'1010.4
2014-Nov-21 00:34N 40°33' W 074°02'1110.7
2014-Nov-20 23:33N 40°44' W 074°01'  
2014-Nov-16 08:20N 40°54' W 073°55'1013.0
2014-Nov-16 07:33N 40°45' W 074°01'1212.4
2014-Nov-16 06:34N 40°33' W 074°01'1210.8
2014-Nov-16 05:29N 40°27' W 073°48'5 0.2
2014-Nov-15 01:20N 40°28' W 073°41'28 9.9
2014-Nov-14 22:28N 39°60' W 073°44'1812.8
2014-Nov-14 21:05N 39°42' W 073°44'712.7
2014-Nov-14 20:33N 39°35' W 073°45'57211.6
2014-Nov-12 19:09N 32°06' W 081°01'4 6.7
2014-Nov-12 18:31N 32°06' W 081°06'0 0.1
2014-Nov-12 17:31N 32°06' W 081°06'0 0.0
2014-Nov-12 16:31N 32°06' W 081°06'0 0.0
2014-Nov-12 15:22N 32°06' W 081°06'0 0.0
2014-Nov-12 14:29N 32°06' W 081°06'0 0.0
2014-Nov-12 11:28N 32°06' W 081°06'0 0.0
2014-Nov-12 10:19N 32°06' W 081°06'0 0.0
2014-Nov-12 09:28N 32°06' W 081°06'0 0.0
2014-Nov-12 08:31N 32°06' W 081°06'0 0.0
2014-Nov-12 07:32N 32°06' W 081°06'0 0.0
2014-Nov-12 06:31N 32°06' W 081°06'2 2.4
2014-Nov-12 05:33N 32°05' W 081°04'9 9.1
2014-Nov-12 04:30N 32°02' W 080°53'  
Track history (hours):
 
Tides and Currents Weather Stations Pressure Air Temp Water Temp Dewpoint Dewpoint Depression Visibility Wind Speed Wind Dir Waves Ship Positions

BBC Congo

Last reported at 2014-Nov-21 06:24 UTC. Time now 2014-Nov-24 12:32 UTC.
Position N 39°28' W 073°57'.

Length 144 m; draft 6.6 m.

Type: Ship. MMSI: 305466000.

Date/timePositionNaut miles runAvg speedWind from/ knotsBaromVisibWave heightAir tempDewpointWater temp
2014-Nov-21 06:24N 39°28' W 073°57'1214.1
2014-Nov-21 05:34N 39°40' W 073°54'4112.5
2014-Nov-21 02:15N 40°21' W 073°49'6 9.0
2014-Nov-21 01:34N 40°27' W 073°50'1010.4
2014-Nov-21 00:34N 40°33' W 074°02'1110.7
2014-Nov-20 23:33N 40°44' W 074°01'  
2014-Nov-16 08:20N 40°54' W 073°55'1013.0
2014-Nov-16 07:33N 40°45' W 074°01'1212.4
2014-Nov-16 06:34N 40°33' W 074°01'1210.8
2014-Nov-16 05:29N 40°27' W 073°48'5 0.2
2014-Nov-15 01:20N 40°28' W 073°41'28 9.9
2014-Nov-14 22:28N 39°60' W 073°44'1812.8
2014-Nov-14 21:05N 39°42' W 073°44'712.7
2014-Nov-14 20:33N 39°35' W 073°45'57211.6
2014-Nov-12 19:09N 32°06' W 081°01'4 6.7
2014-Nov-12 18:31N 32°06' W 081°06'0 0.1
2014-Nov-12 17:31N 32°06' W 081°06'0 0.0
2014-Nov-12 16:31N 32°06' W 081°06'0 0.0
2014-Nov-12 15:22N 32°06' W 081°06'0 0.0
2014-Nov-12 14:29N 32°06' W 081°06'0 0.0
2014-Nov-12 11:28N 32°06' W 081°06'0 0.0
2014-Nov-12 10:19N 32°06' W 081°06'0 0.0
2014-Nov-12 09:28N 32°06' W 081°06'0 0.0
2014-Nov-12 08:31N 32°06' W 081°06'0 0.0
2014-Nov-12 07:32N 32°06' W 081°06'0 0.0
2014-Nov-12 06:31N 32°06' W 081°06'2 2.4
2014-Nov-12 05:33N 32°05' W 081°04'9 9.1
2014-Nov-12 04:30N 32°02' W 080°53'  

Dump ship's entire track history